KRNT - Renton
Updated: Sun, 19-Nov-2017 8:53am PST

 Wind from SSE
Wind: SSE 5 mph , 7 km/h
Temperature: 45°F , 7°C
Wind Chill: 42°F , 6°C
Dew Point: 34°F , 1°C
Humidity: 66%
Barometer: 29.93 inHg , 1013.5 hPa
Visibility: 10 miles , 16 km
Cloud details: 5000 ft
2017/11/19 16:53 KRNT 191653Z 15004KT 10SM OVC050 07/01 A2993 RMK AO2 SLP139 T00720011
KBFI - Seattle-Boeing
Updated: Sun, 19-Nov-2017 8:53am PST

 Wind from SE
Wind: SE 7 mph , 11 km/h
Temperature: 45°F , 7°C
Wind Chill: 41°F , 5°C
Dew Point: 34°F , 1°C
Humidity: 66%
Barometer: 29.93 inHg , 1013.5 hPa
Visibility: 10 miles , 16 km
Cloud details: 4400 ft
2017/11/19 16:53 KBFI 191653Z 14006KT 10SM OVC044 07/01 A2993 RMK AO2 SLP136 T00670006 $
 
KSEA - Seattle
Updated: Sun, 19-Nov-2017 8:53am PST

 Wind from SE
Wind: SE 12 mph , 19 km/h
Temperature: 46°F , 8°C
Wind Chill: 40°F , 4°C
Dew Point: 28°F , -2°C
Humidity: 50%
Barometer: 29.92 inHg , 1013.2 hPa
Visibility: 10 miles , 16 km
Cloud details: 3800 ft
4800 ft
2017/11/19 16:53 KSEA 191653Z 14010KT 10SM BKN038 OVC048 08/M02 A2992 RMK AO2 SLP140 T00781022
KSMP - Stampede Pass
Updated: Sun, 19-Nov-2017 8:56am PST

 Wind from calm
Wind: Calm
Temperature: 34°F , 1°C
Dew Point: 16°F , -9°C
Humidity: 48%
Barometer: 29.91 inHg , 1012.9 hPa
Visibility: 10 miles , 16 km
2017/11/19 16:56 KSMP 191656Z AUTO 00000KT 10SM CLR 01/M09 A2991 RMK AO2 SLP150 T00111089 $